sensor_id;sensor_type;location;lat;lon;timestamp;P1;durP1;ratioP1;P2;durP2;ratioP2
18738;SDS011;9498;51.862;19.460;2022-11-11T00:00:06;57.27;;;25.27;;
18738;SDS011;9498;51.862;19.460;2022-11-11T00:02:34;65.50;;;25.53;;
18738;SDS011;9498;51.862;19.460;2022-11-11T00:05:01;62.95;;;29.63;;
18738;SDS011;9498;51.862;19.460;2022-11-11T00:07:29;65.87;;;26.57;;
18738;SDS011;9498;51.862;19.460;2022-11-11T00:09:56;62.53;;;26.17;;
18738;SDS011;9498;51.862;19.460;2022-11-11T00:12:24;64.17;;;27.13;;
18738;SDS011;9498;51.862;19.460;2022-11-11T00:14:52;59.47;;;24.63;;
18738;SDS011;9498;51.862;19.460;2022-11-11T00:17:19;59.90;;;25.50;;
18738;SDS011;9498;51.862;19.460;2022-11-11T00:20:06;68.60;;;26.30;;
18738;SDS011;9498;51.862;19.460;2022-11-11T00:22:52;60.97;;;26.03;;
18738;SDS011;9498;51.862;19.460;2022-11-11T00:25:36;59.80;;;25.50;;
18738;SDS011;9498;51.862;19.460;2022-11-11T00:28:05;58.90;;;25.47;;
18738;SDS011;9498;51.862;19.460;2022-11-11T00:30:32;64.73;;;23.97;;
18738;SDS011;9498;51.862;19.460;2022-11-11T00:32:59;53.50;;;23.87;;
18738;SDS011;9498;51.862;19.460;2022-11-11T00:35:27;65.47;;;24.60;;
18738;SDS011;9498;51.862;19.460;2022-11-11T00:38:26;61.77;;;27.10;;
18738;SDS011;9498;51.862;19.460;2022-11-11T00:41:14;54.43;;;23.67;;
18738;SDS011;9498;51.862;19.460;2022-11-11T00:43:43;61.10;;;28.20;;
18738;SDS011;9498;51.862;19.460;2022-11-11T00:46:10;52.37;;;23.27;;
18738;SDS011;9498;51.862;19.460;2022-11-11T00:48:55;48.47;;;21.63;;
18738;SDS011;9498;51.862;19.460;2022-11-11T00:51:40;49.13;;;22.83;;
18738;SDS011;9498;51.862;19.460;2022-11-11T00:54:07;45.23;;;20.53;;
18738;SDS011;9498;51.862;19.460;2022-11-11T00:56:35;45.17;;;20.67;;
18738;SDS011;9498;51.862;19.460;2022-11-11T00:59:04;51.00;;;21.27;;
18738;SDS011;9498;51.862;19.460;2022-11-11T01:01:31;50.40;;;19.93;;
18738;SDS011;9498;51.862;19.460;2022-11-11T01:03:59;48.63;;;21.47;;
18738;SDS011;9498;51.862;19.460;2022-11-11T01:06:26;51.43;;;22.30;;
18738;SDS011;9498;51.862;19.460;2022-11-11T01:08:53;48.07;;;22.53;;
18738;SDS011;9498;51.862;19.460;2022-11-11T01:11:21;50.80;;;22.30;;
18738;SDS011;9498;51.862;19.460;2022-11-11T01:13:49;49.20;;;22.87;;
18738;SDS011;9498;51.862;19.460;2022-11-11T01:16:18;57.47;;;23.40;;
18738;SDS011;9498;51.862;19.460;2022-11-11T01:18:46;52.40;;;22.73;;
18738;SDS011;9498;51.862;19.460;2022-11-11T01:21:15;65.53;;;25.80;;
18738;SDS011;9498;51.862;19.460;2022-11-11T01:23:43;52.23;;;22.33;;
18738;SDS011;9498;51.862;19.460;2022-11-11T01:26:12;59.90;;;23.57;;
18738;SDS011;9498;51.862;19.460;2022-11-11T01:28:40;54.93;;;22.33;;
18738;SDS011;9498;51.862;19.460;2022-11-11T01:31:08;63.90;;;23.77;;
18738;SDS011;9498;51.862;19.460;2022-11-11T01:33:37;61.03;;;24.20;;
18738;SDS011;9498;51.862;19.460;2022-11-11T01:36:06;51.03;;;23.20;;
18738;SDS011;9498;51.862;19.460;2022-11-11T01:38:34;55.53;;;22.77;;
18738;SDS011;9498;51.862;19.460;2022-11-11T01:41:01;57.87;;;22.83;;
18738;SDS011;9498;51.862;19.460;2022-11-11T01:43:50;55.20;;;21.90;;
18738;SDS011;9498;51.862;19.460;2022-11-11T01:46:28;54.50;;;23.20;;
18738;SDS011;9498;51.862;19.460;2022-11-11T01:49:08;57.30;;;22.43;;
18738;SDS011;9498;51.862;19.460;2022-11-11T01:51:47;61.50;;;24.33;;
18738;SDS011;9498;51.862;19.460;2022-11-11T01:54:18;56.13;;;23.80;;
18738;SDS011;9498;51.862;19.460;2022-11-11T01:56:48;54.27;;;24.40;;
18738;SDS011;9498;51.862;19.460;2022-11-11T01:59:15;53.00;;;24.87;;
18738;SDS011;9498;51.862;19.460;2022-11-11T02:01:43;70.40;;;24.77;;
18738;SDS011;9498;51.862;19.460;2022-11-11T02:04:12;63.70;;;23.63;;
18738;SDS011;9498;51.862;19.460;2022-11-11T02:06:59;52.37;;;21.77;;
18738;SDS011;9498;51.862;19.460;2022-11-11T02:09:26;69.95;;;28.10;;
18738;SDS011;9498;51.862;19.460;2022-11-11T02:11:54;60.73;;;23.63;;
18738;SDS011;9498;51.862;19.460;2022-11-11T02:14:41;67.93;;;23.40;;
18738;SDS011;9498;51.862;19.460;2022-11-11T02:17:10;56.07;;;22.27;;
18738;SDS011;9498;51.862;19.460;2022-11-11T02:19:43;61.30;;;21.93;;
18738;SDS011;9498;51.862;19.460;2022-11-11T02:22:12;67.83;;;22.57;;
18738;SDS011;9498;51.862;19.460;2022-11-11T02:24:41;59.73;;;21.13;;
18738;SDS011;9498;51.862;19.460;2022-11-11T02:27:09;53.70;;;20.90;;
18738;SDS011;9498;51.862;19.460;2022-11-11T02:29:38;63.07;;;23.23;;
18738;SDS011;9498;51.862;19.460;2022-11-11T02:32:06;53.83;;;20.90;;
18738;SDS011;9498;51.862;19.460;2022-11-11T02:34:33;57.73;;;21.60;;
18738;SDS011;9498;51.862;19.460;2022-11-11T02:37:02;53.50;;;21.17;;
18738;SDS011;9498;51.862;19.460;2022-11-11T02:39:30;50.67;;;20.47;;
18738;SDS011;9498;51.862;19.460;2022-11-11T02:42:00;59.78;;;24.35;;
18738;SDS011;9498;51.862;19.460;2022-11-11T02:44:34;52.10;;;22.73;;
18738;SDS011;9498;51.862;19.460;2022-11-11T02:47:01;55.63;;;22.30;;
18738;SDS011;9498;51.862;19.460;2022-11-11T02:49:28;58.53;;;22.53;;
18738;SDS011;9498;51.862;19.460;2022-11-11T02:51:56;44.23;;;19.37;;
18738;SDS011;9498;51.862;19.460;2022-11-11T02:54:23;53.97;;;21.47;;
18738;SDS011;9498;51.862;19.460;2022-11-11T02:56:50;55.60;;;20.90;;
18738;SDS011;9498;51.862;19.460;2022-11-11T02:59:35;49.63;;;20.40;;
18738;SDS011;9498;51.862;19.460;2022-11-11T03:02:02;60.33;;;22.00;;
18738;SDS011;9498;51.862;19.460;2022-11-11T03:04:29;52.40;;;20.40;;
18738;SDS011;9498;51.862;19.460;2022-11-11T03:06:57;48.10;;;20.87;;
18738;SDS011;9498;51.862;19.460;2022-11-11T03:09:24;55.70;;;21.20;;
18738;SDS011;9498;51.862;19.460;2022-11-11T03:11:51;51.50;;;21.27;;
18738;SDS011;9498;51.862;19.460;2022-11-11T03:14:18;57.90;;;21.77;;
18738;SDS011;9498;51.862;19.460;2022-11-11T03:16:47;51.27;;;20.63;;
18738;SDS011;9498;51.862;19.460;2022-11-11T03:19:32;50.60;;;20.93;;
18738;SDS011;9498;51.862;19.460;2022-11-11T03:21:59;54.53;;;20.43;;
18738;SDS011;9498;51.862;19.460;2022-11-11T03:24:27;47.33;;;19.30;;
18738;SDS011;9498;51.862;19.460;2022-11-11T03:27:15;52.07;;;20.83;;
18738;SDS011;9498;51.862;19.460;2022-11-11T03:29:41;64.60;;;21.20;;
18738;SDS011;9498;51.862;19.460;2022-11-11T03:32:09;59.20;;;21.53;;
18738;SDS011;9498;51.862;19.460;2022-11-11T03:34:37;53.83;;;22.60;;
18738;SDS011;9498;51.862;19.460;2022-11-11T03:37:05;55.73;;;21.47;;
18738;SDS011;9498;51.862;19.460;2022-11-11T03:39:50;56.27;;;20.60;;
18738;SDS011;9498;51.862;19.460;2022-11-11T03:42:17;53.50;;;21.30;;
18738;SDS011;9498;51.862;19.460;2022-11-11T03:44:44;54.83;;;21.20;;
18738;SDS011;9498;51.862;19.460;2022-11-11T03:47:13;58.07;;;21.90;;
18738;SDS011;9498;51.862;19.460;2022-11-11T03:49:40;68.30;;;26.55;;
18738;SDS011;9498;51.862;19.460;2022-11-11T03:52:10;65.37;;;23.60;;
18738;SDS011;9498;51.862;19.460;2022-11-11T03:54:37;51.03;;;20.60;;
18738;SDS011;9498;51.862;19.460;2022-11-11T03:57:04;57.20;;;22.50;;
18738;SDS011;9498;51.862;19.460;2022-11-11T03:59:49;60.63;;;22.17;;
18738;SDS011;9498;51.862;19.460;2022-11-11T04:02:17;62.53;;;21.83;;
18738;SDS011;9498;51.862;19.460;2022-11-11T04:05:02;67.70;;;21.47;;
18738;SDS011;9498;51.862;19.460;2022-11-11T04:07:49;54.03;;;21.80;;
18738;SDS011;9498;51.862;19.460;2022-11-11T04:10:34;68.33;;;22.13;;
18738;SDS011;9498;51.862;19.460;2022-11-11T04:13:01;53.00;;;20.73;;
18738;SDS011;9498;51.862;19.460;2022-11-11T04:15:46;67.00;;;25.60;;
18738;SDS011;9498;51.862;19.460;2022-11-11T04:18:34;59.10;;;24.03;;
18738;SDS011;9498;51.862;19.460;2022-11-11T04:21:18;65.17;;;23.13;;
18738;SDS011;9498;51.862;19.460;2022-11-11T04:24:04;59.97;;;23.30;;
18738;SDS011;9498;51.862;19.460;2022-11-11T04:26:52;63.17;;;22.47;;
18738;SDS011;9498;51.862;19.460;2022-11-11T04:29:19;67.00;;;27.15;;
18738;SDS011;9498;51.862;19.460;2022-11-11T04:31:56;59.17;;;23.30;;
18738;SDS011;9498;51.862;19.460;2022-11-11T04:34:43;58.53;;;21.50;;
18738;SDS011;9498;51.862;19.460;2022-11-11T04:37:11;53.83;;;21.13;;
18738;SDS011;9498;51.862;19.460;2022-11-11T04:39:38;60.83;;;23.63;;
18738;SDS011;9498;51.862;19.460;2022-11-11T04:42:23;48.43;;;20.80;;
18738;SDS011;9498;51.862;19.460;2022-11-11T04:44:51;45.97;;;19.33;;
18738;SDS011;9498;51.862;19.460;2022-11-11T04:47:35;51.50;;;19.37;;
18738;SDS011;9498;51.862;19.460;2022-11-11T04:50:04;52.47;;;19.23;;
18738;SDS011;9498;51.862;19.460;2022-11-11T04:52:32;54.23;;;19.77;;
18738;SDS011;9498;51.862;19.460;2022-11-11T04:55:01;59.83;;;20.13;;
18738;SDS011;9498;51.862;19.460;2022-11-11T04:57:46;43.10;;;19.23;;
18738;SDS011;9498;51.862;19.460;2022-11-11T05:00:14;52.40;;;19.23;;
18738;SDS011;9498;51.862;19.460;2022-11-11T05:02:43;49.10;;;20.30;;
18738;SDS011;9498;51.862;19.460;2022-11-11T05:05:29;46.03;;;19.43;;
18738;SDS011;9498;51.862;19.460;2022-11-11T05:08:18;53.60;;;18.60;;
18738;SDS011;9498;51.862;19.460;2022-11-11T05:11:04;47.00;;;19.23;;
18738;SDS011;9498;51.862;19.460;2022-11-11T05:13:31;50.10;;;18.87;;
18738;SDS011;9498;51.862;19.460;2022-11-11T05:16:17;54.63;;;20.23;;
18738;SDS011;9498;51.862;19.460;2022-11-11T05:19:02;70.37;;;25.17;;
18738;SDS011;9498;51.862;19.460;2022-11-11T05:21:48;59.17;;;20.43;;
18738;SDS011;9498;51.862;19.460;2022-11-11T05:24:16;56.13;;;21.80;;
18738;SDS011;9498;51.862;19.460;2022-11-11T05:27:01;54.77;;;20.70;;
18738;SDS011;9498;51.862;19.460;2022-11-11T05:29:28;51.97;;;20.60;;
18738;SDS011;9498;51.862;19.460;2022-11-11T05:31:56;48.67;;;19.07;;
18738;SDS011;9498;51.862;19.460;2022-11-11T05:34:23;49.10;;;19.00;;
18738;SDS011;9498;51.862;19.460;2022-11-11T05:36:51;61.37;;;20.60;;
18738;SDS011;9498;51.862;19.460;2022-11-11T05:39:19;50.97;;;19.87;;
18738;SDS011;9498;51.862;19.460;2022-11-11T05:41:46;51.87;;;19.63;;
18738;SDS011;9498;51.862;19.460;2022-11-11T05:44:13;53.47;;;19.67;;
18738;SDS011;9498;51.862;19.460;2022-11-11T05:46:40;55.87;;;20.10;;
18738;SDS011;9498;51.862;19.460;2022-11-11T05:49:08;60.55;;;22.45;;
18738;SDS011;9498;51.862;19.460;2022-11-11T05:51:41;58.43;;;21.50;;
18738;SDS011;9498;51.862;19.460;2022-11-11T05:54:10;51.57;;;20.77;;
18738;SDS011;9498;51.862;19.460;2022-11-11T05:56:37;54.10;;;21.07;;
18738;SDS011;9498;51.862;19.460;2022-11-11T05:59:04;46.97;;;19.00;;
18738;SDS011;9498;51.862;19.460;2022-11-11T06:01:31;56.67;;;20.03;;
18738;SDS011;9498;51.862;19.460;2022-11-11T06:03:59;65.20;;;24.30;;
18738;SDS011;9498;51.862;19.460;2022-11-11T06:06:26;57.47;;;22.57;;
18738;SDS011;9498;51.862;19.460;2022-11-11T06:08:53;58.70;;;21.40;;
18738;SDS011;9498;51.862;19.460;2022-11-11T06:11:22;65.30;;;22.10;;
18738;SDS011;9498;51.862;19.460;2022-11-11T06:13:49;57.33;;;21.20;;
18738;SDS011;9498;51.862;19.460;2022-11-11T06:16:16;53.93;;;20.00;;
18738;SDS011;9498;51.862;19.460;2022-11-11T06:18:44;60.10;;;22.67;;
18738;SDS011;9498;51.862;19.460;2022-11-11T06:21:11;57.77;;;22.33;;
18738;SDS011;9498;51.862;19.460;2022-11-11T06:23:38;60.50;;;21.93;;
18738;SDS011;9498;51.862;19.460;2022-11-11T06:26:05;66.57;;;21.77;;
18738;SDS011;9498;51.862;19.460;2022-11-11T06:28:41;51.97;;;21.20;;
18738;SDS011;9498;51.862;19.460;2022-11-11T06:31:08;53.83;;;20.63;;
18738;SDS011;9498;51.862;19.460;2022-11-11T06:33:36;57.10;;;21.20;;
18738;SDS011;9498;51.862;19.460;2022-11-11T06:36:04;64.67;;;20.17;;
18738;SDS011;9498;51.862;19.460;2022-11-11T06:38:32;50.50;;;20.70;;
18738;SDS011;9498;51.862;19.460;2022-11-11T06:40:59;51.80;;;20.33;;
18738;SDS011;9498;51.862;19.460;2022-11-11T06:43:26;61.60;;;21.10;;
18738;SDS011;9498;51.862;19.460;2022-11-11T06:45:55;60.00;;;22.23;;
18738;SDS011;9498;51.862;19.460;2022-11-11T06:48:23;58.03;;;20.37;;
18738;SDS011;9498;51.862;19.460;2022-11-11T06:50:50;49.07;;;20.77;;
18738;SDS011;9498;51.862;19.460;2022-11-11T06:53:18;51.57;;;20.83;;
18738;SDS011;9498;51.862;19.460;2022-11-11T06:55:45;66.23;;;21.53;;
18738;SDS011;9498;51.862;19.460;2022-11-11T06:58:13;58.27;;;21.10;;
18738;SDS011;9498;51.862;19.460;2022-11-11T07:00:41;53.40;;;20.37;;
18738;SDS011;9498;51.862;19.460;2022-11-11T07:03:12;50.00;;;19.67;;
18738;SDS011;9498;51.862;19.460;2022-11-11T07:05:39;55.97;;;19.50;;
18738;SDS011;9498;51.862;19.460;2022-11-11T07:08:07;57.33;;;20.33;;
18738;SDS011;9498;51.862;19.460;2022-11-11T07:10:35;51.90;;;20.30;;
18738;SDS011;9498;51.862;19.460;2022-11-11T07:13:03;58.50;;;20.93;;
18738;SDS011;9498;51.862;19.460;2022-11-11T07:15:30;57.77;;;19.77;;
18738;SDS011;9498;51.862;19.460;2022-11-11T07:17:58;49.87;;;19.53;;
18738;SDS011;9498;51.862;19.460;2022-11-11T07:20:27;60.67;;;20.10;;
18738;SDS011;9498;51.862;19.460;2022-11-11T07:22:54;51.33;;;20.00;;
18738;SDS011;9498;51.862;19.460;2022-11-11T07:25:21;49.67;;;19.93;;
18738;SDS011;9498;51.862;19.460;2022-11-11T07:27:48;59.90;;;19.53;;
18738;SDS011;9498;51.862;19.460;2022-11-11T07:30:16;58.93;;;19.57;;
18738;SDS011;9498;51.862;19.460;2022-11-11T07:32:44;48.33;;;19.40;;
18738;SDS011;9498;51.862;19.460;2022-11-11T07:35:12;50.43;;;19.43;;
18738;SDS011;9498;51.862;19.460;2022-11-11T07:37:41;48.60;;;20.00;;
18738;SDS011;9498;51.862;19.460;2022-11-11T07:40:09;46.73;;;19.03;;
18738;SDS011;9498;51.862;19.460;2022-11-11T07:42:37;50.70;;;19.33;;
18738;SDS011;9498;51.862;19.460;2022-11-11T07:45:04;50.93;;;19.73;;
18738;SDS011;9498;51.862;19.460;2022-11-11T07:47:32;48.90;;;20.67;;
18738;SDS011;9498;51.862;19.460;2022-11-11T07:49:59;46.67;;;18.73;;
18738;SDS011;9498;51.862;19.460;2022-11-11T07:52:27;57.73;;;19.67;;
18738;SDS011;9498;51.862;19.460;2022-11-11T07:54:56;50.93;;;20.17;;
18738;SDS011;9498;51.862;19.460;2022-11-11T07:57:23;50.47;;;20.03;;
18738;SDS011;9498;51.862;19.460;2022-11-11T07:59:50;56.03;;;20.10;;
18738;SDS011;9498;51.862;19.460;2022-11-11T08:02:17;56.35;;;23.38;;
18738;SDS011;9498;51.862;19.460;2022-11-11T08:04:45;54.77;;;21.37;;
18738;SDS011;9498;51.862;19.460;2022-11-11T08:07:12;62.60;;;21.07;;
18738;SDS011;9498;51.862;19.460;2022-11-11T08:09:39;50.87;;;20.53;;
18738;SDS011;9498;51.862;19.460;2022-11-11T08:12:08;45.50;;;18.67;;
18738;SDS011;9498;51.862;19.460;2022-11-11T08:14:53;52.40;;;18.63;;
18738;SDS011;9498;51.862;19.460;2022-11-11T08:17:20;52.70;;;20.57;;
18738;SDS011;9498;51.862;19.460;2022-11-11T08:19:48;47.83;;;20.47;;
18738;SDS011;9498;51.862;19.460;2022-11-11T08:22:15;39.53;;;18.60;;
18738;SDS011;9498;51.862;19.460;2022-11-11T08:24:42;49.80;;;17.83;;
18738;SDS011;9498;51.862;19.460;2022-11-11T08:40:35;30.30;;;13.63;;
18738;SDS011;9498;51.862;19.460;2022-11-11T08:43:02;35.00;;;13.87;;
18738;SDS011;9498;51.862;19.460;2022-11-11T08:45:30;32.27;;;13.23;;
18738;SDS011;9498;51.862;19.460;2022-11-11T08:47:57;29.63;;;13.10;;
18738;SDS011;9498;51.862;19.460;2022-11-11T08:50:24;34.55;;;14.40;;
18738;SDS011;9498;51.862;19.460;2022-11-11T08:52:51;31.50;;;11.97;;
18738;SDS011;9498;51.862;19.460;2022-11-11T08:55:19;35.73;;;13.07;;
18738;SDS011;9498;51.862;19.460;2022-11-11T08:57:47;31.30;;;12.90;;
18738;SDS011;9498;51.862;19.460;2022-11-11T09:00:15;29.03;;;12.33;;
18738;SDS011;9498;51.862;19.460;2022-11-11T09:02:42;30.97;;;11.87;;
18738;SDS011;9498;51.862;19.460;2022-11-11T09:05:09;28.83;;;12.00;;
18738;SDS011;9498;51.862;19.460;2022-11-11T09:07:36;29.13;;;12.13;;
18738;SDS011;9498;51.862;19.460;2022-11-11T09:10:04;25.87;;;11.70;;
18738;SDS011;9498;51.862;19.460;2022-11-11T09:12:31;28.33;;;11.43;;
18738;SDS011;9498;51.862;19.460;2022-11-11T09:15:00;26.57;;;11.27;;
18738;SDS011;9498;51.862;19.460;2022-11-11T09:17:27;28.97;;;11.30;;
18738;SDS011;9498;51.862;19.460;2022-11-11T09:19:55;35.50;;;11.53;;
18738;SDS011;9498;51.862;19.460;2022-11-11T09:22:22;31.63;;;11.13;;
18738;SDS011;9498;51.862;19.460;2022-11-11T09:24:49;30.00;;;11.03;;
18738;SDS011;9498;51.862;19.460;2022-11-11T09:27:16;26.90;;;11.77;;
18738;SDS011;9498;51.862;19.460;2022-11-11T09:29:44;27.80;;;11.77;;
18738;SDS011;9498;51.862;19.460;2022-11-11T09:32:12;26.83;;;10.97;;
18738;SDS011;9498;51.862;19.460;2022-11-11T09:34:39;33.60;;;10.60;;
18738;SDS011;9498;51.862;19.460;2022-11-11T09:37:07;22.13;;;10.13;;
18738;SDS011;9498;51.862;19.460;2022-11-11T09:39:34;24.23;;;9.73;;
18738;SDS011;9498;51.862;19.460;2022-11-11T09:42:02;25.37;;;10.60;;
18738;SDS011;9498;51.862;19.460;2022-11-11T09:44:41;19.93;;;10.17;;
18738;SDS011;9498;51.862;19.460;2022-11-11T09:47:12;27.37;;;9.77;;
18738;SDS011;9498;51.862;19.460;2022-11-11T09:49:44;22.90;;;9.50;;
18738;SDS011;9498;51.862;19.460;2022-11-11T09:52:17;24.27;;;10.30;;
18738;SDS011;9498;51.862;19.460;2022-11-11T09:54:45;23.53;;;10.10;;
18738;SDS011;9498;51.862;19.460;2022-11-11T09:57:15;24.67;;;10.13;;
18738;SDS011;9498;51.862;19.460;2022-11-11T09:59:45;23.93;;;10.30;;
18738;SDS011;9498;51.862;19.460;2022-11-11T10:02:17;75.33;;;30.93;;
18738;SDS011;9498;51.862;19.460;2022-11-11T10:04:48;31.67;;;13.53;;
18738;SDS011;9498;51.862;19.460;2022-11-11T10:07:21;26.83;;;10.13;;
18738;SDS011;9498;51.862;19.460;2022-11-11T10:09:52;24.40;;;10.00;;
18738;SDS011;9498;51.862;19.460;2022-11-11T10:12:22;25.40;;;10.10;;
18738;SDS011;9498;51.862;19.460;2022-11-11T10:14:53;25.57;;;9.37;;
18738;SDS011;9498;51.862;19.460;2022-11-11T10:17:24;22.33;;;9.37;;
18738;SDS011;9498;51.862;19.460;2022-11-11T10:20:01;24.30;;;9.57;;
18738;SDS011;9498;51.862;19.460;2022-11-11T10:22:30;30.43;;;10.47;;
18738;SDS011;9498;51.862;19.460;2022-11-11T10:25:02;24.57;;;9.53;;
18738;SDS011;9498;51.862;19.460;2022-11-11T10:27:32;25.87;;;9.83;;
18738;SDS011;9498;51.862;19.460;2022-11-11T10:30:00;27.53;;;9.90;;
18738;SDS011;9498;51.862;19.460;2022-11-11T10:32:33;26.03;;;9.57;;
18738;SDS011;9498;51.862;19.460;2022-11-11T10:35:11;26.60;;;9.67;;
18738;SDS011;9498;51.862;19.460;2022-11-11T10:37:41;22.90;;;9.50;;
18738;SDS011;9498;51.862;19.460;2022-11-11T10:40:11;23.50;;;9.07;;
18738;SDS011;9498;51.862;19.460;2022-11-11T10:42:41;22.33;;;9.37;;
18738;SDS011;9498;51.862;19.460;2022-11-11T10:45:10;19.63;;;9.53;;
18738;SDS011;9498;51.862;19.460;2022-11-11T10:47:41;26.87;;;9.93;;
18738;SDS011;9498;51.862;19.460;2022-11-11T10:50:13;21.73;;;9.10;;
18738;SDS011;9498;51.862;19.460;2022-11-11T10:52:43;20.03;;;8.47;;
18738;SDS011;9498;51.862;19.460;2022-11-11T10:55:12;18.03;;;8.83;;
18738;SDS011;9498;51.862;19.460;2022-11-11T10:57:40;25.13;;;9.30;;
18738;SDS011;9498;51.862;19.460;2022-11-11T11:00:11;80.97;;;31.33;;
18738;SDS011;9498;51.862;19.460;2022-11-11T11:02:39;60.90;;;20.77;;
18738;SDS011;9498;51.862;19.460;2022-11-11T11:05:08;28.80;;;9.73;;
18738;SDS011;9498;51.862;19.460;2022-11-11T11:07:39;27.90;;;10.30;;
18738;SDS011;9498;51.862;19.460;2022-11-11T11:10:07;21.07;;;9.80;;
18738;SDS011;9498;51.862;19.460;2022-11-11T11:12:37;22.40;;;9.30;;
18738;SDS011;9498;51.862;19.460;2022-11-11T11:15:07;26.40;;;9.50;;
18738;SDS011;9498;51.862;19.460;2022-11-11T11:17:37;25.57;;;9.77;;
18738;SDS011;9498;51.862;19.460;2022-11-11T11:20:08;24.47;;;9.33;;
18738;SDS011;9498;51.862;19.460;2022-11-11T11:22:47;26.07;;;9.07;;
18738;SDS011;9498;51.862;19.460;2022-11-11T11:25:14;23.80;;;9.97;;
18738;SDS011;9498;51.862;19.460;2022-11-11T11:27:42;23.93;;;8.37;;
18738;SDS011;9498;51.862;19.460;2022-11-11T11:30:11;23.33;;;7.90;;
18738;SDS011;9498;51.862;19.460;2022-11-11T11:32:39;21.87;;;8.57;;
18738;SDS011;9498;51.862;19.460;2022-11-11T11:35:09;23.33;;;8.40;;
18738;SDS011;9498;51.862;19.460;2022-11-11T11:37:48;15.60;;;7.90;;
18738;SDS011;9498;51.862;19.460;2022-11-11T11:40:16;18.87;;;7.53;;
18738;SDS011;9498;51.862;19.460;2022-11-11T11:42:43;15.10;;;7.90;;
18738;SDS011;9498;51.862;19.460;2022-11-11T11:45:14;22.63;;;7.67;;
18738;SDS011;9498;51.862;19.460;2022-11-11T11:47:43;14.63;;;7.10;;
18738;SDS011;9498;51.862;19.460;2022-11-11T11:53:08;19.23;;;7.37;;
18738;SDS011;9498;51.862;19.460;2022-11-11T11:55:36;20.37;;;7.13;;
18738;SDS011;9498;51.862;19.460;2022-11-11T11:58:14;21.77;;;7.87;;
18738;SDS011;9498;51.862;19.460;2022-11-11T12:00:50;17.10;;;6.57;;
18738;SDS011;9498;51.862;19.460;2022-11-11T12:03:26;22.63;;;7.37;;
18738;SDS011;9498;51.862;19.460;2022-11-11T12:06:02;20.93;;;7.60;;
18738;SDS011;9498;51.862;19.460;2022-11-11T12:08:41;17.33;;;7.10;;
18738;SDS011;9498;51.862;19.460;2022-11-11T12:11:14;21.53;;;7.70;;
18738;SDS011;9498;51.862;19.460;2022-11-11T12:13:45;24.17;;;7.67;;
18738;SDS011;9498;51.862;19.460;2022-11-11T12:16:18;21.60;;;8.13;;
18738;SDS011;9498;51.862;19.460;2022-11-11T12:18:50;19.93;;;7.83;;
18738;SDS011;9498;51.862;19.460;2022-11-11T12:21:23;21.43;;;7.70;;
18738;SDS011;9498;51.862;19.460;2022-11-11T12:23:57;19.03;;;6.80;;
18738;SDS011;9498;51.862;19.460;2022-11-11T12:26:27;16.90;;;7.30;;
18738;SDS011;9498;51.862;19.460;2022-11-11T12:31:59;14.23;;;6.57;;
18738;SDS011;9498;51.862;19.460;2022-11-11T12:34:33;16.80;;;7.80;;
18738;SDS011;9498;51.862;19.460;2022-11-11T12:37:03;25.17;;;7.70;;
18738;SDS011;9498;51.862;19.460;2022-11-11T12:39:46;18.93;;;7.80;;
18738;SDS011;9498;51.862;19.460;2022-11-11T12:42:18;15.97;;;7.30;;
18738;SDS011;9498;51.862;19.460;2022-11-11T12:44:52;26.03;;;7.80;;
18738;SDS011;9498;51.862;19.460;2022-11-11T12:47:25;22.17;;;7.80;;
18738;SDS011;9498;51.862;19.460;2022-11-11T12:49:56;19.23;;;7.10;;
18738;SDS011;9498;51.862;19.460;2022-11-11T12:52:30;15.70;;;7.07;;
18738;SDS011;9498;51.862;19.460;2022-11-11T12:55:04;16.30;;;7.10;;
18738;SDS011;9498;51.862;19.460;2022-11-11T12:57:37;18.73;;;7.00;;
18738;SDS011;9498;51.862;19.460;2022-11-11T13:00:07;15.03;;;7.33;;
18738;SDS011;9498;51.862;19.460;2022-11-11T13:02:46;43.13;;;17.73;;
18738;SDS011;9498;51.862;19.460;2022-11-11T13:05:20;132.77;;;41.40;;
18738;SDS011;9498;51.862;19.460;2022-11-11T13:07:52;18.43;;;8.30;;
18738;SDS011;9498;51.862;19.460;2022-11-11T13:10:26;22.97;;;7.40;;
18738;SDS011;9498;51.862;19.460;2022-11-11T13:12:59;21.50;;;8.00;;
18738;SDS011;9498;51.862;19.460;2022-11-11T13:15:28;22.83;;;7.23;;
18738;SDS011;9498;51.862;19.460;2022-11-11T13:17:57;22.10;;;7.20;;
18738;SDS011;9498;51.862;19.460;2022-11-11T13:20:28;22.43;;;6.90;;
18738;SDS011;9498;51.862;19.460;2022-11-11T13:23:01;20.50;;;7.07;;
18738;SDS011;9498;51.862;19.460;2022-11-11T13:25:30;18.33;;;7.27;;
18738;SDS011;9498;51.862;19.460;2022-11-11T13:27:59;15.87;;;6.40;;
18738;SDS011;9498;51.862;19.460;2022-11-11T13:30:35;20.43;;;7.20;;
18738;SDS011;9498;51.862;19.460;2022-11-11T13:33:06;24.33;;;6.93;;
18738;SDS011;9498;51.862;19.460;2022-11-11T13:35:35;18.53;;;6.90;;
18738;SDS011;9498;51.862;19.460;2022-11-11T13:38:04;17.07;;;6.07;;
18738;SDS011;9498;51.862;19.460;2022-11-11T13:40:35;13.73;;;6.57;;
18738;SDS011;9498;51.862;19.460;2022-11-11T13:43:03;18.93;;;7.00;;
18738;SDS011;9498;51.862;19.460;2022-11-11T13:45:32;15.73;;;6.63;;
18738;SDS011;9498;51.862;19.460;2022-11-11T13:48:00;19.23;;;6.50;;
18738;SDS011;9498;51.862;19.460;2022-11-11T13:50:28;15.03;;;6.60;;
18738;SDS011;9498;51.862;19.460;2022-11-11T13:52:57;18.57;;;7.07;;
18738;SDS011;9498;51.862;19.460;2022-11-11T13:55:28;22.00;;;7.50;;
18738;SDS011;9498;51.862;19.460;2022-11-11T13:57:57;17.70;;;7.20;;
18738;SDS011;9498;51.862;19.460;2022-11-11T14:00:26;17.67;;;7.23;;
18738;SDS011;9498;51.862;19.460;2022-11-11T14:05:42;17.43;;;7.30;;
18738;SDS011;9498;51.862;19.460;2022-11-11T14:08:09;19.40;;;7.60;;
18738;SDS011;9498;51.862;19.460;2022-11-11T14:10:49;22.23;;;8.20;;
18738;SDS011;9498;51.862;19.460;2022-11-11T14:13:40;19.67;;;7.30;;
18738;SDS011;9498;51.862;19.460;2022-11-11T14:16:10;22.00;;;7.45;;
18738;SDS011;9498;51.862;19.460;2022-11-11T14:18:41;19.00;;;6.77;;
18738;SDS011;9498;51.862;19.460;2022-11-11T14:21:09;15.63;;;6.47;;
18738;SDS011;9498;51.862;19.460;2022-11-11T14:23:37;14.40;;;6.90;;
18738;SDS011;9498;51.862;19.460;2022-11-11T14:26:20;19.20;;;6.47;;
18738;SDS011;9498;51.862;19.460;2022-11-11T14:28:51;18.70;;;6.60;;
18738;SDS011;9498;51.862;19.460;2022-11-11T14:34:05;16.77;;;6.97;;
18738;SDS011;9498;51.862;19.460;2022-11-11T14:36:38;14.10;;;6.40;;
18738;SDS011;9498;51.862;19.460;2022-11-11T14:39:08;14.70;;;6.53;;
18738;SDS011;9498;51.862;19.460;2022-11-11T14:41:44;17.83;;;7.13;;
18738;SDS011;9498;51.862;19.460;2022-11-11T14:47:17;22.70;;;8.67;;
18738;SDS011;9498;51.862;19.460;2022-11-11T14:49:45;26.37;;;8.33;;
18738;SDS011;9498;51.862;19.460;2022-11-11T14:52:17;21.33;;;8.50;;
18738;SDS011;9498;51.862;19.460;2022-11-11T14:57:32;21.53;;;9.37;;
18738;SDS011;9498;51.862;19.460;2022-11-11T15:00:00;25.70;;;9.10;;
18738;SDS011;9498;51.862;19.460;2022-11-11T15:02:31;24.90;;;9.83;;
18738;SDS011;9498;51.862;19.460;2022-11-11T15:05:00;23.87;;;10.00;;
18738;SDS011;9498;51.862;19.460;2022-11-11T15:07:30;24.43;;;8.60;;
18738;SDS011;9498;51.862;19.460;2022-11-11T15:13:08;28.10;;;9.97;;
18738;SDS011;9498;51.862;19.460;2022-11-11T15:15:40;26.90;;;9.77;;
18738;SDS011;9498;51.862;19.460;2022-11-11T15:18:13;24.67;;;10.17;;
18738;SDS011;9498;51.862;19.460;2022-11-11T15:20:54;32.83;;;10.97;;